createdAt,value
2023-01-21T00:01:36.621Z,98499.47
2023-01-21T00:04:06.443Z,98509.22
2023-01-21T00:06:33.004Z,98504.81
2023-01-21T00:08:59.656Z,98506.63
2023-01-21T00:11:26.480Z,98507.06
2023-01-21T00:13:53.071Z,98504.03
2023-01-21T00:16:19.654Z,98510.03
2023-01-21T00:18:47.909Z,98501.84
2023-01-21T00:21:14.452Z,98498.25
2023-01-21T00:23:41.219Z,98508.66
2023-01-21T00:26:11.576Z,98505.06
2023-01-21T00:28:38.691Z,98505.91
2023-01-21T00:31:07.211Z,98505.13
2023-01-21T00:33:35.345Z,98511.16
2023-01-21T00:36:03.788Z,98505.63
2023-01-21T00:38:31.137Z,98509.34
2023-01-21T00:41:02.941Z,98505.63
2023-01-21T00:43:29.759Z,98506.63
2023-01-21T00:45:56.548Z,98503.69
2023-01-21T00:48:23.318Z,98502.91
2023-01-21T00:50:51.575Z,98507.09
2023-01-21T00:53:18.589Z,98503.38
2023-01-21T00:55:45.208Z,98508.75
2023-01-21T00:58:11.840Z,98502.56
2023-01-21T01:00:38.504Z,98511.34
2023-01-21T01:03:05.490Z,98518.22
2023-01-21T01:05:32.196Z,98513.63
2023-01-21T01:07:58.816Z,98513.50
2023-01-21T01:10:25.526Z,98509.28
2023-01-21T01:12:52.093Z,98516.91
2023-01-21T01:15:19.053Z,98508.50
2023-01-21T01:17:45.660Z,98510.75
2023-01-21T01:20:12.503Z,98511.72
2023-01-21T01:22:39.107Z,98510.59
2023-01-21T01:25:06.087Z,98514.53
2023-01-21T01:27:32.718Z,98514.63
2023-01-21T01:29:59.264Z,98511.72
2023-01-21T01:32:25.819Z,98515.28
2023-01-21T01:34:52.416Z,98517.41
2023-01-21T01:37:18.976Z,98517.53
2023-01-21T01:39:45.510Z,98520.97
2023-01-21T01:42:15.760Z,98515.84
2023-01-21T01:45:00.136Z,98514.72
2023-01-21T01:47:32.464Z,98514.88
2023-01-21T01:50:01.448Z,98508.91
2023-01-21T01:52:29.704Z,98508.91
2023-01-21T01:54:59.070Z,98512.19
2023-01-21T01:57:32.282Z,98508.22
2023-01-21T02:00:02.079Z,98509.72
2023-01-21T02:02:28.806Z,98505.50
2023-01-21T02:04:58.242Z,98502.38
2023-01-21T02:07:29.364Z,98506.75
2023-01-21T02:09:56.327Z,98506.25
2023-01-21T02:12:23.278Z,98507.06
2023-01-21T02:14:50.752Z,98506.41
2023-01-21T02:17:40.221Z,98505.22
2023-01-21T02:20:42.100Z,98498.09
2023-01-21T02:23:36.061Z,98501.81
2023-01-21T02:26:33.274Z,98501.84
2023-01-21T02:29:16.221Z,98499.84
2023-01-21T02:31:53.394Z,98497.41
2023-01-21T02:34:43.247Z,98494.44
2023-01-21T02:37:24.199Z,98503.88
2023-01-21T02:40:11.871Z,98495.28
2023-01-21T02:42:46.541Z,98499.00
2023-01-21T02:45:29.360Z,98506.34
2023-01-21T02:48:16.506Z,98500.13
2023-01-21T02:50:46.099Z,98503.38
2023-01-21T02:53:29.638Z,98498.63
2023-01-21T02:56:01.379Z,98498.94
2023-01-21T02:58:34.123Z,98493.75
2023-01-21T03:01:11.281Z,98500.72
2023-01-21T03:03:58.713Z,98498.94
2023-01-21T03:06:37.544Z,98496.19
2023-01-21T03:09:15.463Z,98493.44
2023-01-21T03:11:49.454Z,98496.19
2023-01-21T03:14:39.266Z,98494.38
2023-01-21T03:17:20.119Z,98496.56
2023-01-21T03:19:57.013Z,98495.72
2023-01-21T03:22:29.920Z,98491.03
2023-01-21T03:24:58.931Z,98495.22
2023-01-21T03:27:28.515Z,98490.03
2023-01-21T03:30:00.567Z,98495.06
2023-01-21T03:32:29.763Z,98497.81
2023-01-21T03:34:56.995Z,98498.25
2023-01-21T03:37:35.817Z,98491.72
2023-01-21T03:40:16.170Z,98486.75
2023-01-21T03:42:44.708Z,98490.31
2023-01-21T03:45:12.136Z,98492.41
2023-01-21T03:47:43.124Z,98496.63
2023-01-21T03:50:20.262Z,98489.50
2023-01-21T03:52:47.066Z,98489.28
2023-01-21T03:55:15.973Z,98489.81
2023-01-21T03:57:42.720Z,98487.34
2023-01-21T04:00:13.553Z,98482.00
2023-01-21T04:02:40.151Z,98479.72
2023-01-21T04:05:09.927Z,98478.72
2023-01-21T04:07:36.660Z,98473.19
2023-01-21T04:10:03.525Z,98476.53
2023-01-21T04:12:30.134Z,98470.00
2023-01-21T04:14:57.201Z,98480.41
2023-01-21T04:17:23.920Z,98477.34
2023-01-21T04:19:50.902Z,98484.72
2023-01-21T04:22:17.580Z,98480.97
2023-01-21T04:24:44.158Z,98484.19
2023-01-21T04:27:10.743Z,98482.53
2023-01-21T04:29:37.503Z,98492.00
2023-01-21T04:32:04.322Z,98486.13
2023-01-21T04:34:30.976Z,98491.56
2023-01-21T04:36:57.562Z,98493.94
2023-01-21T04:39:24.152Z,98495.63
2023-01-21T04:41:50.726Z,98498.16
2023-01-21T04:44:17.261Z,98497.16
2023-01-21T04:46:43.870Z,98495.22
2023-01-21T04:49:10.481Z,98498.13
2023-01-21T04:51:37.268Z,98499.59
2023-01-21T04:54:03.936Z,98507.25
2023-01-21T04:56:30.530Z,98500.72
2023-01-21T04:58:57.106Z,98500.56
2023-01-21T05:01:23.690Z,98504.66
2023-01-21T05:03:50.495Z,98500.88
2023-01-21T05:06:17.075Z,98506.75
2023-01-21T05:08:43.679Z,98507.25
2023-01-21T05:11:15.385Z,98513.34
2023-01-21T05:13:41.946Z,98505.47
2023-01-21T05:16:10.081Z,98513.78
2023-01-21T05:18:37.785Z,98512.91
2023-01-21T05:21:05.211Z,98508.69
2023-01-21T05:23:31.781Z,98514.94
2023-01-21T05:25:58.341Z,98519.28
2023-01-21T05:28:24.944Z,98516.16
2023-01-21T05:30:51.533Z,98521.91
2023-01-21T05:33:18.141Z,98516.31
2023-01-21T05:35:44.725Z,98517.97
2023-01-21T05:38:11.288Z,98514.69
2023-01-21T05:40:38.061Z,98517.00
2023-01-21T05:43:04.597Z,98521.25
2023-01-21T05:45:31.165Z,98516.63
2023-01-21T05:47:57.722Z,98514.34
2023-01-21T05:50:24.361Z,98520.72
2023-01-21T05:52:50.974Z,98515.84
2023-01-21T05:55:17.552Z,98510.47
2023-01-21T05:57:44.184Z,98508.38
2023-01-21T06:00:11.339Z,98504.59
2023-01-21T06:02:37.988Z,98512.31
2023-01-21T06:05:04.876Z,98509.84
2023-01-21T06:07:31.507Z,98510.69
2023-01-21T06:09:58.118Z,98515.69
2023-01-21T06:12:24.991Z,98512.03
2023-01-21T06:14:51.598Z,98514.56
2023-01-21T06:17:18.272Z,98519.84
2023-01-21T06:19:44.830Z,98520.31
2023-01-21T06:22:18.828Z,98527.28
2023-01-21T06:24:45.513Z,98524.06
2023-01-21T06:27:12.554Z,98524.97
2023-01-21T06:29:39.175Z,98518.22
2023-01-21T06:32:06.294Z,98522.59
2023-01-21T06:34:32.951Z,98531.06
2023-01-21T06:36:59.572Z,98529.22
2023-01-21T06:39:26.153Z,98528.31
2023-01-21T06:41:55.086Z,98527.47
2023-01-21T06:44:22.467Z,98538.06
2023-01-21T06:47:00.187Z,98539.03
2023-01-21T06:49:27.477Z,98541.66
2023-01-21T06:51:54.051Z,98541.41
2023-01-21T06:54:20.631Z,98544.63
2023-01-21T06:56:47.720Z,98547.22
2023-01-21T06:59:14.363Z,98540.53
2023-01-21T07:01:40.988Z,98545.56
2023-01-21T07:04:07.780Z,98556.50
2023-01-21T07:06:34.329Z,98561.03
2023-01-21T07:09:00.966Z,98566.22
2023-01-21T07:11:27.543Z,98560.75
2023-01-21T07:13:54.127Z,98558.00
2023-01-21T07:16:20.772Z,98563.69
2023-01-21T07:18:47.467Z,98565.06
2023-01-21T07:21:14.211Z,98566.75
2023-01-21T07:23:40.929Z,98566.03
2023-01-21T07:26:07.584Z,98574.56
2023-01-21T07:28:34.333Z,98572.41
2023-01-21T07:31:03.045Z,98577.91
2023-01-21T07:33:30.295Z,98577.91
2023-01-21T07:35:56.927Z,98572.16
2023-01-21T07:38:23.527Z,98577.75
2023-01-21T07:40:50.584Z,98582.81
2023-01-21T07:43:17.611Z,98573.88
2023-01-21T07:45:44.360Z,98570.69
2023-01-21T07:48:11.451Z,98574.94
2023-01-21T07:50:38.094Z,98580.16
2023-01-21T07:53:04.808Z,98573.16
2023-01-21T07:55:31.426Z,98575.09
2023-01-21T07:57:58.923Z,98581.41
2023-01-21T08:00:29.588Z,98582.53
2023-01-21T08:02:57.487Z,98584.16
2023-01-21T08:05:27.415Z,98582.53
2023-01-21T08:07:57.441Z,98586.63
2023-01-21T08:10:24.423Z,98587.44
2023-01-21T08:12:51.022Z,98594.28
2023-01-21T08:15:18.021Z,98589.88
2023-01-21T08:17:47.120Z,98592.78
2023-01-21T08:20:13.833Z,98595.22
2023-01-21T08:22:40.520Z,98591.09
2023-01-21T08:25:08.182Z,98600.97
2023-01-21T08:27:34.775Z,98598.50
2023-01-21T08:30:01.341Z,98596.41
2023-01-21T08:32:31.195Z,98594.81
2023-01-21T08:34:57.943Z,98598.59
2023-01-21T08:37:24.609Z,98601.50
2023-01-21T08:39:51.191Z,98606.53
2023-01-21T08:42:17.763Z,98605.28
2023-01-21T08:44:46.048Z,98617.75
2023-01-21T08:47:12.688Z,98616.13
2023-01-21T08:49:39.286Z,98618.56
2023-01-21T08:52:06.063Z,98613.50
2023-01-21T08:54:32.625Z,98627.06
2023-01-21T08:56:59.249Z,98625.78
2023-01-21T08:59:28.765Z,98631.16
2023-01-21T09:01:56.256Z,98634.72
2023-01-21T09:04:23.649Z,98637.47
2023-01-21T09:06:50.434Z,98639.38
2023-01-21T09:09:17.342Z,98643.34
2023-01-21T09:11:44.132Z,98646.47
2023-01-21T09:14:10.834Z,98649.75
2023-01-21T09:16:37.675Z,98652.63
2023-01-21T09:19:04.948Z,98656.88
2023-01-21T09:21:34.694Z,98662.69
2023-01-21T09:24:01.572Z,98663.03
2023-01-21T09:26:28.479Z,98663.72
2023-01-21T09:28:57.820Z,98668.94
2023-01-21T09:31:26.267Z,98668.41
2023-01-21T09:34:03.714Z,98676.06
2023-01-21T09:36:33.215Z,98666.47
2023-01-21T09:39:00.684Z,98676.19
2023-01-21T09:41:38.426Z,98677.41
2023-01-21T09:44:20.265Z,98674.50
2023-01-21T09:47:09.733Z,98672.63
2023-01-21T09:49:42.088Z,98680.25
2023-01-21T09:52:35.617Z,98670.41
2023-01-21T09:55:03.125Z,98673.03
2023-01-21T09:57:29.664Z,98668.13
2023-01-21T09:59:57.236Z,98673.59
2023-01-21T10:02:24.830Z,98673.03
2023-01-21T10:05:06.751Z,98667.50
2023-01-21T10:07:42.640Z,98666.13
2023-01-21T10:10:36.865Z,98668.41
2023-01-21T10:13:18.617Z,98658.59
2023-01-21T10:15:57.145Z,98657.56
2023-01-21T10:18:30.783Z,98658.91
2023-01-21T10:21:04.939Z,98657.03
2023-01-21T10:23:43.113Z,98655.09
2023-01-21T10:26:13.080Z,98654.13
2023-01-21T10:28:44.533Z,98650.19
2023-01-21T10:31:19.422Z,98650.19
2023-01-21T10:33:46.253Z,98646.16
2023-01-21T10:36:13.889Z,98647.66
2023-01-21T10:38:54.326Z,98647.34
2023-01-21T10:41:36.400Z,98645.81
2023-01-21T10:44:22.839Z,98645.97
2023-01-21T10:47:04.571Z,98644.75
2023-01-21T10:49:44.740Z,98644.91
2023-01-21T10:52:23.879Z,98637.84
2023-01-21T10:55:20.978Z,98636.88
2023-01-21T10:57:49.647Z,98635.75
2023-01-21T11:00:35.642Z,98640.28
2023-01-21T11:03:12.563Z,98640.28
2023-01-21T11:05:39.890Z,98633.75
2023-01-21T11:08:07.626Z,98625.94
2023-01-21T11:10:34.356Z,98634.06
2023-01-21T11:13:00.988Z,98637.47
2023-01-21T11:15:33.526Z,98635.53
2023-01-21T11:18:00.155Z,98635.81
2023-01-21T11:20:41.061Z,98644.16
2023-01-21T11:23:28.296Z,98645.34
2023-01-21T11:26:08.707Z,98647.34
2023-01-21T11:28:36.716Z,98641.03
2023-01-21T11:31:24.960Z,98633.00
2023-01-21T11:33:52.731Z,98625.88
2023-01-21T11:36:21.174Z,98629.00
2023-01-21T11:39:01.451Z,98627.06
2023-01-21T11:41:28.876Z,98627.34
2023-01-21T11:44:08.978Z,98621.63
2023-01-21T11:46:38.617Z,98621.84
2023-01-21T11:49:26.580Z,98618.81
2023-01-21T11:52:15.751Z,98615.63
2023-01-21T11:54:43.041Z,98613.16
2023-01-21T11:57:28.671Z,98603.88
2023-01-21T11:59:59.636Z,98601.09
2023-01-21T12:02:37.782Z,98599.31
2023-01-21T12:05:12.176Z,98596.75
2023-01-21T12:07:43.373Z,98599.09
2023-01-21T12:10:35.685Z,98597.88
2023-01-21T12:13:13.875Z,98604.72
2023-01-21T12:16:11.355Z,98602.59
2023-01-21T12:18:52.602Z,98598.34
2023-01-21T12:21:49.870Z,98606.00
2023-01-21T12:24:36.493Z,98596.06
2023-01-21T12:27:18.838Z,98602.38
2023-01-21T12:30:01.644Z,98591.66
2023-01-21T12:32:37.335Z,98594.25
2023-01-21T12:35:27.248Z,98587.25
2023-01-21T12:38:02.156Z,98586.06
2023-01-21T12:40:38.917Z,98588.75
2023-01-21T12:43:14.151Z,98589.00
2023-01-21T12:45:47.754Z,98596.19
2023-01-21T12:48:21.821Z,98584.16
2023-01-21T12:51:01.415Z,98587.13
2023-01-21T12:53:44.322Z,98593.72
2023-01-21T12:56:41.398Z,98582.03
2023-01-21T12:59:07.963Z,98578.63
2023-01-21T13:01:49.219Z,98581.59
2023-01-21T13:04:32.148Z,98578.19
2023-01-21T13:07:02.970Z,98574.97
2023-01-21T13:09:38.719Z,98574.75
2023-01-21T13:12:21.578Z,98580.34
2023-01-21T13:14:58.193Z,98584.72
2023-01-21T13:17:30.930Z,98582.13
2023-01-21T13:19:59.198Z,98583.94
2023-01-21T13:22:45.112Z,98585.44
2023-01-21T13:25:27.160Z,98593.72
2023-01-21T13:28:10.140Z,98601.00
2023-01-21T13:30:53.618Z,98594.69
2023-01-21T13:33:28.575Z,98598.88
2023-01-21T13:36:25.208Z,98593.81
2023-01-21T13:39:10.358Z,98595.16
2023-01-21T13:41:50.406Z,98602.13
2023-01-21T13:44:48.084Z,98602.28
2023-01-21T13:47:42.058Z,98597.22
2023-01-21T13:50:24.918Z,98596.75
2023-01-21T13:53:26.938Z,98596.06
2023-01-21T13:56:02.370Z,98598.78
2023-01-21T13:58:30.997Z,98592.63
2023-01-21T14:01:12.983Z,98599.09
2023-01-21T14:04:02.985Z,98597.00
2023-01-21T14:06:40.506Z,98601.47
2023-01-21T14:09:20.424Z,98594.94
2023-01-21T14:11:57.711Z,98608.16
2023-01-21T14:14:39.267Z,98604.97
2023-01-21T14:17:36.433Z,98599.78
2023-01-21T14:20:31.489Z,98606.38
2023-01-21T14:23:20.833Z,98604.16
2023-01-21T14:26:19.539Z,98611.94
2023-01-21T14:29:16.524Z,98608.69
2023-01-21T14:31:49.827Z,98613.75
2023-01-21T14:34:22.447Z,98618.97
2023-01-21T14:37:02.559Z,98631.06
2023-01-21T14:39:46.896Z,98634.34
2023-01-21T14:42:17.675Z,98636.72
2023-01-21T14:45:06.095Z,98635.69
2023-01-21T14:47:32.706Z,98641.19
2023-01-21T14:50:00.024Z,98644.53
2023-01-21T14:52:33.108Z,98647.22
2023-01-21T14:55:00.419Z,98638.13
2023-01-21T14:57:28.027Z,98646.25
2023-01-21T15:00:04.280Z,98650.78
2023-01-21T15:02:35.627Z,98664.13
2023-01-21T15:05:15.641Z,98656.13
2023-01-21T15:07:45.855Z,98660.53
2023-01-21T15:10:20.540Z,98658.22
2023-01-21T15:12:53.779Z,98656.06
2023-01-21T15:15:29.641Z,98657.09
2023-01-21T15:17:57.655Z,98661.56
2023-01-21T15:20:44.941Z,98668.41
2023-01-21T15:23:38.654Z,98664.03
2023-01-21T15:26:19.263Z,98667.59
2023-01-21T15:28:46.919Z,98666.63
2023-01-21T15:31:13.588Z,98667.28
2023-01-21T15:33:57.220Z,98668.13
2023-01-21T15:36:35.452Z,98668.13
2023-01-21T15:39:12.283Z,98673.31
2023-01-21T15:41:51.972Z,98674.28
2023-01-21T15:44:18.552Z,98679.03
2023-01-21T15:46:51.624Z,98680.63
2023-01-21T15:49:37.807Z,98683.66
2023-01-21T15:52:32.717Z,98684.53
2023-01-21T15:55:00.480Z,98686.19
2023-01-21T15:57:56.500Z,98689.59
2023-01-21T16:00:24.136Z,98702.34
2023-01-21T16:03:24.651Z,98696.53
2023-01-21T16:06:19.869Z,98699.19
2023-01-21T16:09:05.251Z,98698.41
2023-01-21T16:12:02.317Z,98697.72
2023-01-21T16:14:52.904Z,98698.69
2023-01-21T16:17:35.559Z,98702.69
2023-01-21T16:20:06.126Z,98694.53
2023-01-21T16:22:38.292Z,98700.94
2023-01-21T16:25:10.640Z,98704.63
2023-01-21T16:27:37.251Z,98708.50
2023-01-21T16:30:12.044Z,98712.16
2023-01-21T16:32:38.715Z,98709.53
2023-01-21T16:35:06.239Z,98713.94
2023-01-21T16:37:33.094Z,98715.63
2023-01-21T16:40:30.372Z,98709.47
2023-01-21T16:43:16.880Z,98712.38
2023-01-21T16:45:50.282Z,98721.28
2023-01-21T16:48:22.070Z,98714.59
2023-01-21T16:50:48.847Z,98721.56
2023-01-21T16:53:18.099Z,98725.94
2023-01-21T16:55:47.226Z,98723.75
2023-01-21T16:58:37.829Z,98721.44
2023-01-21T17:01:10.342Z,98728.25
2023-01-21T17:03:38.196Z,98729.38
2023-01-21T17:06:11.066Z,98726.09
2023-01-21T17:08:38.459Z,98725.50
2023-01-21T17:11:11.027Z,98724.69
2023-01-21T17:13:42.923Z,98731.25
2023-01-21T17:16:24.031Z,98736.06
2023-01-21T17:19:07.487Z,98736.22
2023-01-21T17:21:40.051Z,98738.81
2023-01-21T17:24:19.499Z,98742.63
2023-01-21T17:26:49.529Z,98747.31
2023-01-21T17:29:19.204Z,98752.50
2023-01-21T17:31:53.892Z,98749.63
2023-01-21T17:34:23.837Z,98749.38
2023-01-21T17:36:52.621Z,98750.66
2023-01-21T17:39:49.895Z,98746.31
2023-01-21T17:42:20.219Z,98749.69
2023-01-21T17:44:50.206Z,98750.47
2023-01-21T17:47:23.578Z,98746.53
2023-01-21T17:49:58.096Z,98756.78
2023-01-21T17:52:25.160Z,98759.41
2023-01-21T17:55:09.606Z,98748.19
2023-01-21T17:57:36.301Z,98759.25
2023-01-21T18:00:23.905Z,98756.63
2023-01-21T18:02:50.554Z,98762.69
2023-01-21T18:05:17.423Z,98762.53
2023-01-21T18:07:44.195Z,98765.44
2023-01-21T18:10:16.822Z,98774.06
2023-01-21T18:12:43.451Z,98769.00
2023-01-21T18:15:14.749Z,98758.00
2023-01-21T18:17:46.044Z,98764.19
2023-01-21T18:20:16.765Z,98769.00
2023-01-21T18:22:43.551Z,98768.16
2023-01-21T18:25:13.256Z,98769.41
2023-01-21T18:27:41.224Z,98763.41
2023-01-21T18:30:14.184Z,98759.69
2023-01-21T18:32:42.716Z,98769.25
2023-01-21T18:35:10.527Z,98765.47
2023-01-21T18:37:37.424Z,98760.25
2023-01-21T18:40:05.805Z,98763.69
2023-01-21T18:42:33.206Z,98769.84
2023-01-21T18:44:59.827Z,98765.03
2023-01-21T18:47:26.476Z,98770.25
2023-01-21T18:49:53.213Z,98768.91
2023-01-21T18:52:21.286Z,98775.47
2023-01-21T18:54:47.927Z,98775.88
2023-01-21T18:57:18.455Z,98777.53
2023-01-21T18:59:45.064Z,98780.22
2023-01-21T19:02:15.999Z,98778.06
2023-01-21T19:04:42.990Z,98781.63
2023-01-21T19:07:14.973Z,98795.88
2023-01-21T19:09:46.081Z,98786.72
2023-01-21T19:12:14.775Z,98785.88
2023-01-21T19:14:41.377Z,98789.59
2023-01-21T19:17:14.296Z,98786.81
2023-01-21T19:19:41.440Z,98785.63
2023-01-21T19:22:14.995Z,98781.47
2023-01-21T19:24:42.197Z,98785.47
2023-01-21T19:27:23.069Z,98781.31
2023-01-21T19:29:49.638Z,98783.81
2023-01-21T19:32:16.330Z,98785.47
2023-01-21T19:34:43.059Z,98780.25
2023-01-21T19:37:14.232Z,98787.69
2023-01-21T19:39:40.872Z,98784.63
2023-01-21T19:42:10.849Z,98781.91
2023-01-21T19:44:39.389Z,98783.97
2023-01-21T19:47:14.284Z,98782.19
2023-01-21T19:49:40.893Z,98786.84
2023-01-21T19:52:09.142Z,98782.03
2023-01-21T19:54:35.726Z,98789.19
2023-01-21T19:57:02.328Z,98789.31
2023-01-21T19:59:28.937Z,98789.88
2023-01-21T20:01:55.583Z,98798.94
2023-01-21T20:04:25.479Z,98786.88
2023-01-21T20:06:52.209Z,98779.78
2023-01-21T20:09:22.019Z,98782.22
2023-01-21T20:11:48.609Z,98786.19
2023-01-21T20:14:15.230Z,98794.66
2023-01-21T20:16:50.042Z,98800.97
2023-01-21T20:19:19.141Z,98794.94
2023-01-21T20:21:59.935Z,98801.25
2023-01-21T20:24:30.090Z,98799.34
2023-01-21T20:26:57.259Z,98811.38
2023-01-21T20:29:23.934Z,98808.78
2023-01-21T20:31:51.990Z,98810.69
2023-01-21T20:34:18.561Z,98810.69
2023-01-21T20:36:48.401Z,98806.31
2023-01-21T20:39:15.301Z,98810.53
2023-01-21T20:41:43.401Z,98806.44
2023-01-21T20:44:10.550Z,98805.91
2023-01-21T20:46:37.301Z,98803.44
2023-01-21T20:49:03.943Z,98806.75
2023-01-21T20:51:30.693Z,98812.22
2023-01-21T20:53:57.254Z,98812.91
2023-01-21T20:56:27.059Z,98814.00
2023-01-21T20:58:54.170Z,98821.94
2023-01-21T21:01:23.583Z,98814.84
2023-01-21T21:03:50.943Z,98821.94
2023-01-21T21:06:21.373Z,98817.16
2023-01-21T21:08:50.352Z,98815.38
2023-01-21T21:11:18.447Z,98817.84
2023-01-21T21:13:48.346Z,98830.31
2023-01-21T21:16:27.823Z,98823.34
2023-01-21T21:18:54.540Z,98828.69
2023-01-21T21:21:23.536Z,98827.03
2023-01-21T21:23:51.593Z,98820.59
2023-01-21T21:26:23.448Z,98826.63
2023-01-21T21:28:51.562Z,98839.50
2023-01-21T21:31:18.291Z,98833.47
2023-01-21T21:33:44.947Z,98838.00
2023-01-21T21:36:14.786Z,98843.47
2023-01-21T21:38:41.964Z,98847.16
2023-01-21T21:41:30.039Z,98850.19
2023-01-21T21:43:56.630Z,98854.41
2023-01-21T21:46:38.493Z,98848.38
2023-01-21T21:49:05.060Z,98845.13
2023-01-21T21:51:31.870Z,98859.09
2023-01-21T21:53:58.520Z,98855.09
2023-01-21T21:56:25.115Z,98859.19
2023-01-21T21:58:52.137Z,98854.00
2023-01-21T22:01:22.069Z,98852.75
2023-01-21T22:03:48.996Z,98862.50
2023-01-21T22:06:18.440Z,98860.69
2023-01-21T22:08:45.488Z,98861.94
2023-01-21T22:11:15.782Z,98863.00
2023-01-21T22:13:43.639Z,98867.41
2023-01-21T22:16:14.183Z,98860.84
2023-01-21T22:18:41.347Z,98869.75
2023-01-21T22:21:13.723Z,98869.88
2023-01-21T22:23:40.358Z,98868.09
2023-01-21T22:26:09.625Z,98869.19
2023-01-21T22:28:36.378Z,98872.91
2023-01-21T22:31:05.014Z,98867.13
2023-01-21T22:33:32.314Z,98868.78
2023-01-21T22:36:01.939Z,98877.28
2023-01-21T22:38:28.525Z,98872.34
2023-01-21T22:40:55.751Z,98868.38
2023-01-21T22:43:22.367Z,98866.97
2023-01-21T22:45:49.203Z,98870.16
2023-01-21T22:48:16.369Z,98863.03
2023-01-21T22:50:44.467Z,98866.75
2023-01-21T22:53:12.599Z,98867.53
2023-01-21T22:55:39.980Z,98875.09
2023-01-21T22:58:07.031Z,98874.56
2023-01-21T23:00:39.421Z,98876.88
2023-01-21T23:03:07.799Z,98872.22
2023-01-21T23:05:35.416Z,98876.03
2023-01-21T23:08:02.008Z,98865.63
2023-01-21T23:10:28.636Z,98872.34
2023-01-21T23:12:55.407Z,98869.75
2023-01-21T23:15:23.173Z,98870.72
2023-01-21T23:17:51.325Z,98869.38
2023-01-21T23:20:18.388Z,98873.72
2023-01-21T23:22:45.887Z,98869.63
2023-01-21T23:25:14.395Z,98873.06
2023-01-21T23:27:41.443Z,98877.28
2023-01-21T23:30:09.773Z,98875.50
2023-01-21T23:32:36.426Z,98874.81
2023-01-21T23:35:03.036Z,98871.13
2023-01-21T23:37:29.603Z,98872.22
2023-01-21T23:39:56.235Z,98873.56
2023-01-21T23:42:23.683Z,98879.47
2023-01-21T23:44:51.173Z,98877.97
2023-01-21T23:47:18.412Z,98877.81
2023-01-21T23:49:44.964Z,98884.66
2023-01-21T23:52:12.514Z,98886.56
2023-01-21T23:54:40.337Z,98888.38
2023-01-21T23:57:07.816Z,98886.44
2023-01-21T23:59:35.587Z,98878.78
